sensor_id;sensor_type;location;lat;lon;timestamp;P1;durP1;ratioP1;P2;durP2;ratioP2
78824;SDS011;68176;45.554;10.220;2023-04-03T02:41:03;3.30;;;1.33;;
78824;SDS011;68176;45.554;10.220;2023-04-03T02:43:30;1.67;;;0.97;;
78824;SDS011;68176;45.554;10.220;2023-04-03T02:45:56;3.30;;;1.60;;
78824;SDS011;68176;45.554;10.220;2023-04-03T02:48:24;2.22;;;1.48;;
78824;SDS011;68176;45.554;10.220;2023-04-03T02:50:54;2.22;;;1.27;;
78824;SDS011;68176;45.554;10.220;2023-04-03T02:55:54;3.28;;;1.25;;
78824;SDS011;68176;45.554;10.220;2023-04-03T02:58:24;2.60;;;1.35;;
78824;SDS011;68176;45.554;10.220;2023-04-03T03:00:54;2.00;;;1.23;;
78824;SDS011;68176;45.554;10.220;2023-04-03T03:06:02;2.78;;;1.45;;
78824;SDS011;68176;45.554;10.220;2023-04-03T03:08:27;2.55;;;1.65;;
78824;SDS011;68176;45.554;10.220;2023-04-03T03:10:54;2.90;;;1.83;;
78824;SDS011;68176;45.554;10.220;2023-04-03T03:13:24;1.85;;;1.02;;
78824;SDS011;68176;45.554;10.220;2023-04-03T03:15:54;2.80;;;1.58;;
78824;SDS011;68176;45.554;10.220;2023-04-03T03:20:55;1.85;;;1.00;;
78824;SDS011;68176;45.554;10.220;2023-04-03T03:23:25;1.98;;;1.40;;
78824;SDS011;68176;45.554;10.220;2023-04-03T03:25:55;2.30;;;1.67;;
78824;SDS011;68176;45.554;10.220;2023-04-03T03:28:24;1.80;;;1.25;;
78824;SDS011;68176;45.554;10.220;2023-04-03T03:30:55;1.92;;;1.02;;
78824;SDS011;68176;45.554;10.220;2023-04-03T03:33:25;2.15;;;1.33;;
78824;SDS011;68176;45.554;10.220;2023-04-03T03:35:55;1.85;;;0.93;;
78824;SDS011;68176;45.554;10.220;2023-04-03T03:38:25;3.40;;;1.30;;
78824;SDS011;68176;45.554;10.220;2023-04-03T03:40:54;2.15;;;1.23;;
78824;SDS011;68176;45.554;10.220;2023-04-03T03:43:25;1.75;;;0.82;;
78824;SDS011;68176;45.554;10.220;2023-04-03T03:45:54;3.13;;;1.42;;
78824;SDS011;68176;45.554;10.220;2023-04-03T03:48:25;2.33;;;1.33;;
78824;SDS011;68176;45.554;10.220;2023-04-03T03:50:55;2.75;;;1.13;;
78824;SDS011;68176;45.554;10.220;2023-04-03T03:53:25;2.35;;;1.25;;
78824;SDS011;68176;45.554;10.220;2023-04-03T03:55:55;1.98;;;0.80;;
78824;SDS011;68176;45.554;10.220;2023-04-03T03:58:25;2.20;;;1.30;;
78824;SDS011;68176;45.554;10.220;2023-04-03T04:00:55;2.55;;;1.45;;
78824;SDS011;68176;45.554;10.220;2023-04-03T04:03:25;2.13;;;1.33;;
78824;SDS011;68176;45.554;10.220;2023-04-03T04:05:55;2.60;;;1.23;;
78824;SDS011;68176;45.554;10.220;2023-04-03T04:08:25;1.75;;;1.00;;
78824;SDS011;68176;45.554;10.220;2023-04-03T04:13:25;2.67;;;1.00;;
78824;SDS011;68176;45.554;10.220;2023-04-03T04:15:55;2.70;;;1.20;;
78824;SDS011;68176;45.554;10.220;2023-04-03T04:18:25;2.60;;;1.35;;
78824;SDS011;68176;45.554;10.220;2023-04-03T04:20:55;2.13;;;1.08;;
78824;SDS011;68176;45.554;10.220;2023-04-03T04:23:25;2.40;;;1.10;;
78824;SDS011;68176;45.554;10.220;2023-04-03T04:25:55;2.08;;;1.08;;
78824;SDS011;68176;45.554;10.220;2023-04-03T04:28:25;2.55;;;1.17;;
78824;SDS011;68176;45.554;10.220;2023-04-03T04:30:55;2.80;;;1.58;;
78824;SDS011;68176;45.554;10.220;2023-04-03T04:33:25;2.05;;;1.08;;
78824;SDS011;68176;45.554;10.220;2023-04-03T04:35:55;1.85;;;1.08;;
78824;SDS011;68176;45.554;10.220;2023-04-03T04:38:25;2.97;;;1.27;;
78824;SDS011;68176;45.554;10.220;2023-04-03T04:40:55;2.22;;;1.40;;
78824;SDS011;68176;45.554;10.220;2023-04-03T04:46:05;1.92;;;1.25;;
78824;SDS011;68176;45.554;10.220;2023-04-03T04:48:33;1.13;;;0.57;;
78824;SDS011;68176;45.554;10.220;2023-04-03T04:51:00;1.70;;;1.40;;
78824;SDS011;68176;45.554;10.220;2023-04-03T04:53:27;1.85;;;1.08;;
78824;SDS011;68176;45.554;10.220;2023-04-03T04:55:57;2.58;;;1.42;;
78824;SDS011;68176;45.554;10.220;2023-04-03T04:58:26;2.15;;;1.23;;
78824;SDS011;68176;45.554;10.220;2023-04-03T05:03:27;1.75;;;1.15;;
78824;SDS011;68176;45.554;10.220;2023-04-03T05:05:57;2.45;;;1.27;;
78824;SDS011;68176;45.554;10.220;2023-04-03T05:08:26;2.13;;;1.08;;
78824;SDS011;68176;45.554;10.220;2023-04-03T05:10:57;1.95;;;1.13;;
78824;SDS011;68176;45.554;10.220;2023-04-03T05:13:26;2.03;;;1.23;;
78824;SDS011;68176;45.554;10.220;2023-04-03T05:18:27;2.10;;;1.02;;
78824;SDS011;68176;45.554;10.220;2023-04-03T05:25:57;2.28;;;1.05;;
78824;SDS011;68176;45.554;10.220;2023-04-03T05:28:27;2.45;;;0.98;;
78824;SDS011;68176;45.554;10.220;2023-04-03T05:30:57;1.85;;;1.05;;
78824;SDS011;68176;45.554;10.220;2023-04-03T05:33:27;2.03;;;1.13;;
78824;SDS011;68176;45.554;10.220;2023-04-03T05:35:57;2.78;;;1.45;;
78824;SDS011;68176;45.554;10.220;2023-04-03T05:38:28;2.00;;;1.80;;
78824;SDS011;68176;45.554;10.220;2023-04-03T05:40:57;2.67;;;1.13;;
78824;SDS011;68176;45.554;10.220;2023-04-03T05:43:27;2.38;;;1.23;;
78824;SDS011;68176;45.554;10.220;2023-04-03T05:48:27;1.83;;;1.23;;
78824;SDS011;68176;45.554;10.220;2023-04-03T05:50:57;1.85;;;1.02;;
78824;SDS011;68176;45.554;10.220;2023-04-03T05:53:27;2.08;;;0.98;;
78824;SDS011;68176;45.554;10.220;2023-04-03T05:55:57;2.80;;;1.63;;
78824;SDS011;68176;45.554;10.220;2023-04-03T05:58:27;2.33;;;1.23;;
78824;SDS011;68176;45.554;10.220;2023-04-03T06:00:57;2.00;;;0.88;;
78824;SDS011;68176;45.554;10.220;2023-04-03T06:03:27;1.85;;;1.10;;
78824;SDS011;68176;45.554;10.220;2023-04-03T06:05:57;2.05;;;0.98;;
78824;SDS011;68176;45.554;10.220;2023-04-03T06:08:27;2.20;;;1.05;;
78824;SDS011;68176;45.554;10.220;2023-04-03T06:10:57;3.42;;;1.52;;
78824;SDS011;68176;45.554;10.220;2023-04-03T06:13:27;2.25;;;0.90;;
78824;SDS011;68176;45.554;10.220;2023-04-03T06:15:57;2.97;;;1.67;;
78824;SDS011;68176;45.554;10.220;2023-04-03T06:18:27;2.60;;;0.73;;
78824;SDS011;68176;45.554;10.220;2023-04-03T06:20:57;2.85;;;0.90;;
78824;SDS011;68176;45.554;10.220;2023-04-03T06:23:27;2.13;;;1.05;;
78824;SDS011;68176;45.554;10.220;2023-04-03T06:25:57;1.67;;;1.10;;
78824;SDS011;68176;45.554;10.220;2023-04-03T06:28:27;1.95;;;1.05;;
78824;SDS011;68176;45.554;10.220;2023-04-03T06:30:57;2.30;;;1.48;;
78824;SDS011;68176;45.554;10.220;2023-04-03T06:35:57;2.25;;;1.17;;
78824;SDS011;68176;45.554;10.220;2023-04-03T06:38:27;2.15;;;1.02;;
78824;SDS011;68176;45.554;10.220;2023-04-03T06:43:27;2.20;;;1.30;;
78824;SDS011;68176;45.554;10.220;2023-04-03T06:45:57;2.10;;;0.93;;
78824;SDS011;68176;45.554;10.220;2023-04-03T06:48:27;2.33;;;0.90;;
78824;SDS011;68176;45.554;10.220;2023-04-03T06:50:57;2.55;;;1.20;;
78824;SDS011;68176;45.554;10.220;2023-04-03T06:53:27;1.80;;;1.00;;
78824;SDS011;68176;45.554;10.220;2023-04-03T06:55:57;1.88;;;0.77;;
78824;SDS011;68176;45.554;10.220;2023-04-03T06:58:27;2.25;;;1.27;;
78824;SDS011;68176;45.554;10.220;2023-04-03T07:00:57;3.80;;;1.42;;
78824;SDS011;68176;45.554;10.220;2023-04-03T07:03:27;2.10;;;1.05;;
78824;SDS011;68176;45.554;10.220;2023-04-03T07:05:57;2.13;;;0.98;;
78824;SDS011;68176;45.554;10.220;2023-04-03T07:08:27;2.13;;;1.30;;
78824;SDS011;68176;45.554;10.220;2023-04-03T07:10:57;2.30;;;1.15;;
78824;SDS011;68176;45.554;10.220;2023-04-03T07:13:27;2.20;;;1.05;;
78824;SDS011;68176;45.554;10.220;2023-04-03T07:15:57;1.70;;;1.08;;
78824;SDS011;68176;45.554;10.220;2023-04-03T07:18:27;4.00;;;1.25;;
78824;SDS011;68176;45.554;10.220;2023-04-03T07:20:57;2.90;;;1.02;;
78824;SDS011;68176;45.554;10.220;2023-04-03T07:23:27;2.20;;;1.40;;
78824;SDS011;68176;45.554;10.220;2023-04-03T07:25:57;1.63;;;1.02;;
78824;SDS011;68176;45.554;10.220;2023-04-03T07:31:02;3.35;;;1.10;;
78824;SDS011;68176;45.554;10.220;2023-04-03T07:33:30;4.20;;;2.40;;
78824;SDS011;68176;45.554;10.220;2023-04-03T07:35:57;2.28;;;1.15;;
78824;SDS011;68176;45.554;10.220;2023-04-03T07:38:27;2.20;;;1.20;;
78824;SDS011;68176;45.554;10.220;2023-04-03T07:40:57;2.88;;;1.20;;
78824;SDS011;68176;45.554;10.220;2023-04-03T07:43:27;2.22;;;1.00;;
78824;SDS011;68176;45.554;10.220;2023-04-03T07:45:57;1.92;;;0.98;;
78824;SDS011;68176;45.554;10.220;2023-04-03T07:48:27;4.18;;;1.13;;
78824;SDS011;68176;45.554;10.220;2023-04-03T07:51:01;2.17;;;1.10;;
78824;SDS011;68176;45.554;10.220;2023-04-03T07:53:28;1.90;;;1.20;;
78824;SDS011;68176;45.554;10.220;2023-04-03T07:55:58;1.90;;;1.10;;
78824;SDS011;68176;45.554;10.220;2023-04-03T07:58:27;2.33;;;1.13;;
78824;SDS011;68176;45.554;10.220;2023-04-03T08:00:58;3.00;;;1.10;;
78824;SDS011;68176;45.554;10.220;2023-04-03T08:03:27;1.85;;;1.08;;
78824;SDS011;68176;45.554;10.220;2023-04-03T08:06:01;2.08;;;1.08;;
78824;SDS011;68176;45.554;10.220;2023-04-03T08:08:28;2.60;;;1.10;;
78824;SDS011;68176;45.554;10.220;2023-04-03T08:10:58;2.80;;;1.50;;
78824;SDS011;68176;45.554;10.220;2023-04-03T08:13:28;2.53;;;1.35;;
78824;SDS011;68176;45.554;10.220;2023-04-03T08:15:57;1.50;;;0.63;;
78824;SDS011;68176;45.554;10.220;2023-04-03T08:18:31;2.10;;;1.30;;
78824;SDS011;68176;45.554;10.220;2023-04-03T08:20:57;2.05;;;0.90;;
78824;SDS011;68176;45.554;10.220;2023-04-03T08:25:58;1.52;;;0.68;;
78824;SDS011;68176;45.554;10.220;2023-04-03T08:28:28;3.40;;;1.45;;
78824;SDS011;68176;45.554;10.220;2023-04-03T08:33:28;2.17;;;1.17;;
78824;SDS011;68176;45.554;10.220;2023-04-03T08:35:57;2.00;;;1.10;;
78824;SDS011;68176;45.554;10.220;2023-04-03T08:41:02;2.35;;;0.80;;
78824;SDS011;68176;45.554;10.220;2023-04-03T08:43:43;1.75;;;1.00;;
78824;SDS011;68176;45.554;10.220;2023-04-03T08:46:22;0.98;;;0.43;;
78824;SDS011;68176;45.554;10.220;2023-04-03T08:48:57;1.85;;;1.05;;
78824;SDS011;68176;45.554;10.220;2023-04-03T08:51:24;1.20;;;0.55;;
78824;SDS011;68176;45.554;10.220;2023-04-03T08:56:25;1.00;;;0.50;;
78824;SDS011;68176;45.554;10.220;2023-04-03T08:59:03;2.70;;;1.50;;
78824;SDS011;68176;45.554;10.220;2023-04-03T09:01:34;1.90;;;1.42;;
78824;SDS011;68176;45.554;10.220;2023-04-03T09:04:03;2.13;;;1.03;;
78824;SDS011;68176;45.554;10.220;2023-04-03T09:06:35;1.50;;;0.93;;
78824;SDS011;68176;45.554;10.220;2023-04-03T09:14:39;1.92;;;0.93;;
78824;SDS011;68176;45.554;10.220;2023-04-03T09:17:15;1.77;;;0.95;;
78824;SDS011;68176;45.554;10.220;2023-04-03T09:20:02;5.45;;;0.90;;
78824;SDS011;68176;45.554;10.220;2023-04-03T09:22:31;2.40;;;0.75;;
78824;SDS011;68176;45.554;10.220;2023-04-03T09:24:59;1.45;;;0.85;;
78824;SDS011;68176;45.554;10.220;2023-04-03T09:27:40;0.95;;;0.52;;
78824;SDS011;68176;45.554;10.220;2023-04-03T09:30:06;17.10;;;2.20;;
78824;SDS011;68176;45.554;10.220;2023-04-03T09:32:37;1.50;;;0.70;;
78824;SDS011;68176;45.554;10.220;2023-04-03T09:35:09;2.05;;;0.80;;
78824;SDS011;68176;45.554;10.220;2023-04-03T09:40:04;1.70;;;0.57;;
78824;SDS011;68176;45.554;10.220;2023-04-03T09:42:34;1.13;;;0.40;;
78824;SDS011;68176;45.554;10.220;2023-04-03T09:45:18;0.60;;;0.40;;
78824;SDS011;68176;45.554;10.220;2023-04-03T09:47:48;2.53;;;1.02;;
78824;SDS011;68176;45.554;10.220;2023-04-03T09:52:43;2.70;;;0.70;;
78824;SDS011;68176;45.554;10.220;2023-04-03T09:55:16;2.23;;;0.63;;
78824;SDS011;68176;45.554;10.220;2023-04-03T09:57:53;1.67;;;0.55;;
78824;SDS011;68176;45.554;10.220;2023-04-03T10:07:50;2.05;;;0.80;;
78824;SDS011;68176;45.554;10.220;2023-04-03T10:10:18;1.10;;;0.50;;
78824;SDS011;68176;45.554;10.220;2023-04-03T10:12:47;1.50;;;0.60;;
78824;SDS011;68176;45.554;10.220;2023-04-03T10:15:16;1.73;;;0.85;;
78824;SDS011;68176;45.554;10.220;2023-04-03T10:26:02;1.67;;;0.68;;
78824;SDS011;68176;45.554;10.220;2023-04-03T10:28:54;20.38;;;3.45;;
78824;SDS011;68176;45.554;10.220;2023-04-03T10:31:27;2.05;;;0.98;;
78824;SDS011;68176;45.554;10.220;2023-04-03T10:37:01;3.80;;;0.70;;
78824;SDS011;68176;45.554;10.220;2023-04-03T10:40:00;3.17;;;2.28;;
78824;SDS011;68176;45.554;10.220;2023-04-03T10:43:09;1.92;;;0.55;;
78824;SDS011;68176;45.554;10.220;2023-04-03T10:46:10;0.65;;;0.25;;
78824;SDS011;68176;45.554;10.220;2023-04-03T10:48:57;2.85;;;1.17;;
78824;SDS011;68176;45.554;10.220;2023-04-03T10:51:32;6.22;;;0.98;;
78824;SDS011;68176;45.554;10.220;2023-04-03T10:59:26;1.73;;;0.73;;
78824;SDS011;68176;45.554;10.220;2023-04-03T11:04:25;4.40;;;1.90;;
78824;SDS011;68176;45.554;10.220;2023-04-03T11:07:02;1.70;;;0.80;;
78824;SDS011;68176;45.554;10.220;2023-04-03T11:09:35;6.95;;;0.63;;
78824;SDS011;68176;45.554;10.220;2023-04-03T11:12:08;2.92;;;2.25;;
78824;SDS011;68176;45.554;10.220;2023-04-03T11:14:39;1.73;;;0.90;;
78824;SDS011;68176;45.554;10.220;2023-04-03T11:22:43;1.90;;;0.73;;
78824;SDS011;68176;45.554;10.220;2023-04-03T11:27:41;3.30;;;3.00;;
78824;SDS011;68176;45.554;10.220;2023-04-03T11:30:25;1.55;;;0.90;;
78824;SDS011;68176;45.554;10.220;2023-04-03T11:35:35;3.72;;;0.98;;
78824;SDS011;68176;45.554;10.220;2023-04-03T11:38:02;2.75;;;1.25;;
78824;SDS011;68176;45.554;10.220;2023-04-03T11:40:32;1.45;;;0.85;;
78824;SDS011;68176;45.554;10.220;2023-04-03T11:45:31;2.92;;;0.60;;
78824;SDS011;68176;45.554;10.220;2023-04-03T11:48:03;7.15;;;1.48;;
78824;SDS011;68176;45.554;10.220;2023-04-03T11:50:52;1.63;;;0.95;;
78824;SDS011;68176;45.554;10.220;2023-04-03T12:01:42;1.50;;;0.52;;
78824;SDS011;68176;45.554;10.220;2023-04-03T12:04:10;1.15;;;0.60;;
78824;SDS011;68176;45.554;10.220;2023-04-03T12:09:21;0.80;;;0.60;;
78824;SDS011;68176;45.554;10.220;2023-04-03T12:11:53;1.02;;;0.50;;
78824;SDS011;68176;45.554;10.220;2023-04-03T12:14:21;0.90;;;0.50;;
78824;SDS011;68176;45.554;10.220;2023-04-03T12:16:50;1.30;;;0.70;;
78824;SDS011;68176;45.554;10.220;2023-04-03T12:26:47;1.65;;;0.50;;
78824;SDS011;68176;45.554;10.220;2023-04-03T12:29:27;1.15;;;0.43;;
78824;SDS011;68176;45.554;10.220;2023-04-03T12:35:01;1.38;;;0.60;;
78824;SDS011;68176;45.554;10.220;2023-04-03T12:46:51;2.05;;;1.10;;
78824;SDS011;68176;45.554;10.220;2023-04-03T12:49:26;0.50;;;0.30;;
78824;SDS011;68176;45.554;10.220;2023-04-03T12:54:46;1.73;;;0.75;;
78824;SDS011;68176;45.554;10.220;2023-04-03T12:57:16;3.20;;;0.60;;
78824;SDS011;68176;45.554;10.220;2023-04-03T12:59:46;1.07;;;0.57;;
78824;SDS011;68176;45.554;10.220;2023-04-03T13:02:23;0.75;;;0.20;;
78824;SDS011;68176;45.554;10.220;2023-04-03T13:04:53;1.05;;;0.50;;
78824;SDS011;68176;45.554;10.220;2023-04-03T13:07:32;1.58;;;0.38;;
78824;SDS011;68176;45.554;10.220;2023-04-03T13:12:31;1.10;;;0.57;;
78824;SDS011;68176;45.554;10.220;2023-04-03T13:17:27;2.28;;;0.85;;
78824;SDS011;68176;45.554;10.220;2023-04-03T13:20:06;2.17;;;0.73;;
78824;SDS011;68176;45.554;10.220;2023-04-03T13:22:36;2.63;;;0.70;;
78824;SDS011;68176;45.554;10.220;2023-04-03T13:25:27;2.25;;;0.73;;
78824;SDS011;68176;45.554;10.220;2023-04-03T13:27:56;1.87;;;0.33;;
78824;SDS011;68176;45.554;10.220;2023-04-03T13:30:32;1.90;;;0.53;;
78824;SDS011;68176;45.554;10.220;2023-04-03T13:33:00;2.13;;;0.63;;
78824;SDS011;68176;45.554;10.220;2023-04-03T13:35:39;1.80;;;0.85;;
78824;SDS011;68176;45.554;10.220;2023-04-03T13:43:18;3.20;;;0.80;;
78824;SDS011;68176;45.554;10.220;2023-04-03T13:45:58;2.40;;;0.70;;
78824;SDS011;68176;45.554;10.220;2023-04-03T13:48:37;1.40;;;0.50;;
78824;SDS011;68176;45.554;10.220;2023-04-03T13:53:47;1.80;;;0.40;;
78824;SDS011;68176;45.554;10.220;2023-04-03T14:01:47;1.33;;;0.65;;
78824;SDS011;68176;45.554;10.220;2023-04-03T14:04:52;1.97;;;0.90;;
78824;SDS011;68176;45.554;10.220;2023-04-03T14:07:22;0.63;;;0.47;;
78824;SDS011;68176;45.554;10.220;2023-04-03T14:09:49;1.20;;;0.60;;
78824;SDS011;68176;45.554;10.220;2023-04-03T14:12:18;6.40;;;1.10;;
78824;SDS011;68176;45.554;10.220;2023-04-03T14:14:51;1.05;;;0.45;;
78824;SDS011;68176;45.554;10.220;2023-04-03T14:17:18;2.15;;;0.90;;
78824;SDS011;68176;45.554;10.220;2023-04-03T14:19:47;2.40;;;0.88;;
78824;SDS011;68176;45.554;10.220;2023-04-03T14:24:47;2.97;;;0.88;;
78824;SDS011;68176;45.554;10.220;2023-04-03T14:27:20;2.83;;;0.73;;
78824;SDS011;68176;45.554;10.220;2023-04-03T14:29:49;1.90;;;0.70;;
78824;SDS011;68176;45.554;10.220;2023-04-03T14:32:22;5.07;;;0.57;;
78824;SDS011;68176;45.554;10.220;2023-04-03T14:34:50;3.75;;;0.65;;
78824;SDS011;68176;45.554;10.220;2023-04-03T14:37:18;2.08;;;0.75;;
78824;SDS011;68176;45.554;10.220;2023-04-03T14:39:47;2.65;;;0.85;;
78824;SDS011;68176;45.554;10.220;2023-04-03T14:42:18;2.08;;;0.60;;
78824;SDS011;68176;45.554;10.220;2023-04-03T14:44:47;4.40;;;0.70;;
78824;SDS011;68176;45.554;10.220;2023-04-03T14:47:19;2.80;;;0.77;;
78824;SDS011;68176;45.554;10.220;2023-04-03T14:49:47;2.22;;;0.60;;
78824;SDS011;68176;45.554;10.220;2023-04-03T14:52:35;3.13;;;0.57;;
78824;SDS011;68176;45.554;10.220;2023-04-03T14:55:22;5.87;;;4.57;;
78824;SDS011;68176;45.554;10.220;2023-04-03T14:57:48;5.10;;;2.50;;
78824;SDS011;68176;45.554;10.220;2023-04-03T15:00:17;11.68;;;4.30;;
78824;SDS011;68176;45.554;10.220;2023-04-03T15:02:45;6.30;;;3.70;;
78824;SDS011;68176;45.554;10.220;2023-04-03T15:05:15;7.57;;;2.83;;
78824;SDS011;68176;45.554;10.220;2023-04-03T15:08:03;6.53;;;3.00;;
78824;SDS011;68176;45.554;10.220;2023-04-03T15:10:29;12.88;;;3.60;;
78824;SDS011;68176;45.554;10.220;2023-04-03T15:12:56;3.00;;;2.70;;
78824;SDS011;68176;45.554;10.220;2023-04-03T15:15:30;12.90;;;2.40;;
78824;SDS011;68176;45.554;10.220;2023-04-03T15:17:56;6.80;;;1.60;;
78824;SDS011;68176;45.554;10.220;2023-04-03T15:20:26;15.85;;;2.10;;
78824;SDS011;68176;45.554;10.220;2023-04-03T15:22:53;10.63;;;1.55;;
78824;SDS011;68176;45.554;10.220;2023-04-03T15:25:23;7.10;;;1.25;;
78824;SDS011;68176;45.554;10.220;2023-04-03T15:27:53;9.70;;;1.98;;
78824;SDS011;68176;45.554;10.220;2023-04-03T15:30:23;5.18;;;1.73;;
78824;SDS011;68176;45.554;10.220;2023-04-03T15:32:53;10.38;;;1.73;;
78824;SDS011;68176;45.554;10.220;2023-04-03T15:35:23;10.57;;;2.25;;
78824;SDS011;68176;45.554;10.220;2023-04-03T15:37:53;10.30;;;2.45;;
78824;SDS011;68176;45.554;10.220;2023-04-03T15:40:23;8.80;;;2.30;;
78824;SDS011;68176;45.554;10.220;2023-04-03T15:42:53;14.57;;;3.40;;
78824;SDS011;68176;45.554;10.220;2023-04-03T15:45:23;12.38;;;3.20;;
78824;SDS011;68176;45.554;10.220;2023-04-03T15:47:53;4.72;;;2.45;;
78824;SDS011;68176;45.554;10.220;2023-04-03T15:50:23;9.27;;;3.00;;
78824;SDS011;68176;45.554;10.220;2023-04-03T15:52:53;8.57;;;2.72;;
78824;SDS011;68176;45.554;10.220;2023-04-03T15:55:26;5.03;;;2.47;;
78824;SDS011;68176;45.554;10.220;2023-04-03T15:57:56;2.60;;;1.50;;
78824;SDS011;68176;45.554;10.220;2023-04-03T16:00:23;4.78;;;2.58;;
78824;SDS011;68176;45.554;10.220;2023-04-03T16:02:54;5.53;;;2.40;;
78824;SDS011;68176;45.554;10.220;2023-04-03T16:05:24;6.30;;;1.30;;
78824;SDS011;68176;45.554;10.220;2023-04-03T16:07:53;6.47;;;2.65;;
78824;SDS011;68176;45.554;10.220;2023-04-03T16:10:23;3.75;;;2.38;;
78824;SDS011;68176;45.554;10.220;2023-04-03T16:12:53;7.25;;;2.25;;
78824;SDS011;68176;45.554;10.220;2023-04-03T16:15:23;4.28;;;2.20;;
78824;SDS011;68176;45.554;10.220;2023-04-03T16:17:53;4.75;;;2.90;;
78824;SDS011;68176;45.554;10.220;2023-04-03T16:20:23;8.63;;;2.42;;
78824;SDS011;68176;45.554;10.220;2023-04-03T16:22:53;5.65;;;2.55;;
78824;SDS011;68176;45.554;10.220;2023-04-03T16:25:23;7.55;;;3.28;;
78824;SDS011;68176;45.554;10.220;2023-04-03T16:27:53;7.00;;;2.10;;
78824;SDS011;68176;45.554;10.220;2023-04-03T16:30:23;5.80;;;2.15;;
78824;SDS011;68176;45.554;10.220;2023-04-03T16:32:53;4.45;;;2.42;;
78824;SDS011;68176;45.554;10.220;2023-04-03T16:35:23;5.43;;;2.35;;
78824;SDS011;68176;45.554;10.220;2023-04-03T16:37:53;6.95;;;2.42;;
78824;SDS011;68176;45.554;10.220;2023-04-03T16:40:23;7.00;;;2.22;;
78824;SDS011;68176;45.554;10.220;2023-04-03T16:42:53;4.38;;;2.10;;
78824;SDS011;68176;45.554;10.220;2023-04-03T16:45:23;4.03;;;2.50;;
78824;SDS011;68176;45.554;10.220;2023-04-03T16:47:53;8.73;;;2.25;;
78824;SDS011;68176;45.554;10.220;2023-04-03T16:50:23;6.25;;;2.60;;
78824;SDS011;68176;45.554;10.220;2023-04-03T16:52:53;4.72;;;2.05;;
78824;SDS011;68176;45.554;10.220;2023-04-03T16:55:23;7.68;;;2.05;;
78824;SDS011;68176;45.554;10.220;2023-04-03T16:57:53;5.30;;;2.60;;
78824;SDS011;68176;45.554;10.220;2023-04-03T17:00:23;5.55;;;2.58;;
78824;SDS011;68176;45.554;10.220;2023-04-03T17:02:53;7.32;;;2.60;;
78824;SDS011;68176;45.554;10.220;2023-04-03T17:07:53;5.82;;;2.30;;
78824;SDS011;68176;45.554;10.220;2023-04-03T17:10:23;6.45;;;2.53;;
78824;SDS011;68176;45.554;10.220;2023-04-03T17:12:53;7.18;;;2.95;;
78824;SDS011;68176;45.554;10.220;2023-04-03T17:15:23;4.43;;;2.10;;
78824;SDS011;68176;45.554;10.220;2023-04-03T17:17:53;4.18;;;2.03;;
78824;SDS011;68176;45.554;10.220;2023-04-03T17:20:23;10.65;;;2.47;;
78824;SDS011;68176;45.554;10.220;2023-04-03T17:22:53;6.25;;;2.55;;
78824;SDS011;68176;45.554;10.220;2023-04-03T17:25:23;3.83;;;2.15;;
78824;SDS011;68176;45.554;10.220;2023-04-03T17:27:53;5.70;;;2.83;;
78824;SDS011;68176;45.554;10.220;2023-04-03T17:30:23;9.82;;;3.25;;
78824;SDS011;68176;45.554;10.220;2023-04-03T17:32:53;3.65;;;2.55;;
78824;SDS011;68176;45.554;10.220;2023-04-03T17:35:23;4.10;;;2.40;;
78824;SDS011;68176;45.554;10.220;2023-04-03T17:37:53;6.22;;;2.60;;
78824;SDS011;68176;45.554;10.220;2023-04-03T17:40:23;4.20;;;2.42;;
78824;SDS011;68176;45.554;10.220;2023-04-03T17:42:53;8.27;;;2.70;;
78824;SDS011;68176;45.554;10.220;2023-04-03T17:45:23;8.18;;;2.88;;
78824;SDS011;68176;45.554;10.220;2023-04-03T17:47:53;4.80;;;2.20;;
78824;SDS011;68176;45.554;10.220;2023-04-03T17:50:23;7.07;;;2.70;;
78824;SDS011;68176;45.554;10.220;2023-04-03T17:52:53;5.65;;;2.58;;
78824;SDS011;68176;45.554;10.220;2023-04-03T17:55:23;6.05;;;1.92;;
78824;SDS011;68176;45.554;10.220;2023-04-03T17:57:53;10.25;;;2.63;;
78824;SDS011;68176;45.554;10.220;2023-04-03T18:00:23;4.38;;;2.22;;
78824;SDS011;68176;45.554;10.220;2023-04-03T18:02:53;4.68;;;2.58;;
78824;SDS011;68176;45.554;10.220;2023-04-03T18:05:27;5.90;;;2.13;;
78824;SDS011;68176;45.554;10.220;2023-04-03T18:07:53;5.27;;;2.33;;
78824;SDS011;68176;45.554;10.220;2023-04-03T18:10:24;3.67;;;1.88;;
78824;SDS011;68176;45.554;10.220;2023-04-03T18:12:53;8.02;;;2.65;;
78824;SDS011;68176;45.554;10.220;2023-04-03T18:15:24;7.57;;;2.58;;
78824;SDS011;68176;45.554;10.220;2023-04-03T18:17:53;4.28;;;2.45;;
78824;SDS011;68176;45.554;10.220;2023-04-03T18:20:23;8.02;;;2.42;;
78824;SDS011;68176;45.554;10.220;2023-04-03T18:25:23;5.13;;;2.33;;
78824;SDS011;68176;45.554;10.220;2023-04-03T18:27:53;6.45;;;2.42;;
78824;SDS011;68176;45.554;10.220;2023-04-03T18:32:53;5.45;;;2.35;;
78824;SDS011;68176;45.554;10.220;2023-04-03T18:35:23;7.80;;;2.65;;
78824;SDS011;68176;45.554;10.220;2023-04-03T18:37:54;6.90;;;2.80;;
78824;SDS011;68176;45.554;10.220;2023-04-03T18:40:23;7.43;;;2.40;;
78824;SDS011;68176;45.554;10.220;2023-04-03T18:42:53;7.18;;;1.95;;
78824;SDS011;68176;45.554;10.220;2023-04-03T18:45:23;7.40;;;2.22;;
78824;SDS011;68176;45.554;10.220;2023-04-03T18:47:54;7.80;;;2.42;;
78824;SDS011;68176;45.554;10.220;2023-04-03T18:50:24;9.85;;;2.22;;
78824;SDS011;68176;45.554;10.220;2023-04-03T18:52:54;4.35;;;1.63;;
78824;SDS011;68176;45.554;10.220;2023-04-03T18:55:24;5.38;;;1.58;;
78824;SDS011;68176;45.554;10.220;2023-04-03T18:57:54;8.25;;;1.98;;
78824;SDS011;68176;45.554;10.220;2023-04-03T19:00:24;5.53;;;1.40;;
78824;SDS011;68176;45.554;10.220;2023-04-03T19:02:54;4.00;;;1.33;;
78824;SDS011;68176;45.554;10.220;2023-04-03T19:05:24;6.32;;;1.50;;
78824;SDS011;68176;45.554;10.220;2023-04-03T19:07:54;4.75;;;1.30;;
78824;SDS011;68176;45.554;10.220;2023-04-03T19:10:24;4.60;;;1.63;;
78824;SDS011;68176;45.554;10.220;2023-04-03T19:12:54;3.40;;;1.27;;
78824;SDS011;68176;45.554;10.220;2023-04-03T19:15:24;2.70;;;1.08;;
78824;SDS011;68176;45.554;10.220;2023-04-03T19:17:54;2.72;;;1.30;;
78824;SDS011;68176;45.554;10.220;2023-04-03T19:22:54;6.30;;;1.15;;
78824;SDS011;68176;45.554;10.220;2023-04-03T19:25:24;7.75;;;1.50;;
78824;SDS011;68176;45.554;10.220;2023-04-03T19:32:54;5.90;;;1.52;;
78824;SDS011;68176;45.554;10.220;2023-04-03T19:35:24;4.15;;;0.90;;
78824;SDS011;68176;45.554;10.220;2023-04-03T19:40:24;1.95;;;0.88;;
78824;SDS011;68176;45.554;10.220;2023-04-03T19:42:54;5.25;;;1.23;;
78824;SDS011;68176;45.554;10.220;2023-04-03T19:45:24;8.93;;;0.77;;
78824;SDS011;68176;45.554;10.220;2023-04-03T19:47:54;7.90;;;1.17;;
78824;SDS011;68176;45.554;10.220;2023-04-03T19:50:24;4.53;;;1.27;;
78824;SDS011;68176;45.554;10.220;2023-04-03T19:55:24;4.10;;;1.00;;
78824;SDS011;68176;45.554;10.220;2023-04-03T19:57:54;4.25;;;1.10;;
78824;SDS011;68176;45.554;10.220;2023-04-03T20:00:24;5.10;;;1.05;;
78824;SDS011;68176;45.554;10.220;2023-04-03T20:02:54;5.40;;;1.20;;
78824;SDS011;68176;45.554;10.220;2023-04-03T20:05:24;4.10;;;1.15;;
78824;SDS011;68176;45.554;10.220;2023-04-03T20:07:54;2.92;;;0.98;;
78824;SDS011;68176;45.554;10.220;2023-04-03T20:10:24;6.60;;;1.63;;
78824;SDS011;68176;45.554;10.220;2023-04-03T20:12:54;5.28;;;1.02;;
78824;SDS011;68176;45.554;10.220;2023-04-03T20:15:24;7.90;;;0.63;;
78824;SDS011;68176;45.554;10.220;2023-04-03T20:17:56;2.90;;;1.13;;
78824;SDS011;68176;45.554;10.220;2023-04-03T20:20:24;4.38;;;1.23;;
78824;SDS011;68176;45.554;10.220;2023-04-03T20:22:54;5.20;;;1.00;;